This is the latest recevied weather packets stored in our database for station/object KD9IXX-13. If no packets are shown the sender has not sent any weather packets the latest 10 day(s).
| Time | Temp. | Humidity | Pressure | Rain* | Wind** | Luminosity | Snow |
|---|---|---|---|---|---|---|---|
| 1787577602 | 18.33° C | 85% | 1019.5 hPa | 0 mm | - | 258 W/m² | - |
| 1787577002 | 17.78° C | 86% | 1019.5 hPa | 0 mm | - | 212 W/m² | - |
| 1787575802 | 15.56° C | 99% | 1019.4 hPa | 0 mm | - | 84 W/m² | - |
| 1787575201 | 15° C | 99% | 1019.6 hPa | 0 mm | - | 74 W/m² | - |
| 1787574302 | 13.89° C | 99% | 1019.5 hPa | 0 mm | - | 46 W/m² | - |
| 1787574002 | 13.89° C | 99% | 1019.5 hPa | 0 mm | - | 42 W/m² | - |
| 1787573401 | 13.33° C | 99% | 1019.5 hPa | 0 mm | - | 39 W/m² | - |
| 1787573102 | 13.33° C | 99% | 1019.4 hPa | 0 mm | - | 35 W/m² | - |
| 1787572802 | 13.33° C | 99% | 1019.5 hPa | 0 mm | - | 33 W/m² | - |
| 1787571902 | 12.78° C | 99% | 1019.1 hPa | 0 mm | - | 24 W/m² | - |
| 1787571302 | 12.78° C | 99% | 1019 hPa | 0 mm | - | 16 W/m² | - |
| 1787571001 | 12.78° C | 99% | 1019 hPa | 0 mm | - | 13 W/m² | - |
| 1787570702 | 12.78° C | 99% | 1019 hPa | 0 mm | - | 10 W/m² | - |
| 1787570102 | 12.78° C | 99% | 1018.9 hPa | 0 mm | - | 4 W/m² | - |
| 1787569502 | 12.78° C | 99% | 1019 hPa | 0 mm | - | 1 W/m² | - |
| 1787569202 | 12.78° C | 99% | 1019.1 hPa | 0 mm | - | 0 W/m² | - |
| 1787568602 | 12.78° C | 99% | 1018.9 hPa | 0 mm | - | 0 W/m² | - |
| 1787568302 | 12.78° C | 99% | 1018.8 hPa | 0 mm | - | 0 W/m² | - |
| 1787568002 | 12.78° C | 99% | 1018.7 hPa | 0 mm | - | 0 W/m² | - |
| 1787567702 | 12.22° C | 99% | 1018.7 hPa | 0 mm | - | 0 W/m² | - |
| 1787567102 | 12.78° C | 99% | 1018.9 hPa | 0 mm | - | 0 W/m² | - |
| 1787566802 | 12.22° C | 99% | 1019 hPa | 0 mm | - | 0 W/m² | - |
| 1787566501 | 12.22° C | 99% | 1018.7 hPa | 0 mm | - | 0 W/m² | - |
| 1787565002 | 12.22° C | 99% | 1018.9 hPa | 0 mm | - | 0 W/m² | - |
| 1787563802 | 12.22° C | 99% | 1018.7 hPa | 0 mm | - | 0 W/m² | - |
* Rain latest hour (hover to see other rain measurements)
** Current wind speed in m/s (hover to see current wind gust speed)